Airfield :
LOGIN :

Register | Disclaimer

   EN    FR    IT 

 










Legend :    VFR   Marginal VFR   IFR   Intensive IFR   Very Intensive IFR
Visi :
Ceiling :
>= 8 km
>= 3000ft
5 to 8 km
1000 to 3000 ft
1500m to 5 km
500 to 1000 ft
800 to 1500m
200 to 500 ft
< 800m
< 200 ft
Symbols :   Thunderstorms  Fog  Heavy snow  Heavy precipitations  Wind > 20 kt
SIGMETs :     Misc.  Thunderstorms  Icing  Turbulence  Mountain Waves  Volcanic Ashes







- Airport Elevation : 13 ft
- IATA code : CAG


LIEE - Cagliari Elmas

CURRENT METAR :
  • 101750Z 32014KT 9999 FEW050 13/07 Q1021

EXPIRED METARs :
  • 101720Z 32013KT 9999 SCT040 13/06 Q1021
  • 101650Z 33014KT 9999 SCT040 13/06 Q1021
  • 101620Z 33018KT 9999 SCT040 13/06 Q1020
  • 101550Z 32024KT 9999 FEW038 SCT045 14/06 Q1019
  • 101520Z 32024KT 9999 SCT038 14/07 Q1019
  • 101450Z 32021KT 9999 SCT050 14/06 Q1020

TAF TAF LIEE
Valid from the 10 at 18:00 until the 11 at 18:00 UTC


101700Z 1018/1118 33018KT 9999 SCT030
No reported NOTAMs for that airfield.
2 SIGMETs reported for the Roma FIR (LIRR) :
 
Severe turbulence
LIRR SIGMET 15 VALID 101800/102100 LIIB
LIRR ROMA FIR SEV TURB FCST NE OF LINE N4122 E00754 - N3612 E01411 FL150/350 STNR NC=
Severe turbulence
LIRR SIGMET 14 VALID 101600/101800 LIIB
LIRR ROMA FIR SEV TURB FCST NE OF LINE N4122 E00754 - N3612 E01411 FL150/350 STNR NC=



MET'MAP, your aeronautical weather chart ! - Copyright ORBIFLY December 2007 - Disclaimer

ORBIFLY MET'MAP TEAM :

Programming & Development : Alexandra Zaïnal
Concept & Development : Baudouin d'Aumeries
Co-Development & Prog : Marc-Olivier Méhu
Technical & hardware support : Manuel Goepfert

Contact : metmap@orbifly.com




SOURCES & CREDITS :

   NOAA